createdAt,value
2018-08-17T00:00:08.150Z,19.87
2018-08-17T00:02:36.789Z,19.87
2018-08-17T00:05:05.366Z,19.87
2018-08-17T00:07:33.970Z,19.83
2018-08-17T00:10:02.586Z,19.83
2018-08-17T00:12:31.235Z,19.82
2018-08-17T00:14:59.855Z,19.79
2018-08-17T00:17:28.354Z,19.77
2018-08-17T00:19:56.970Z,19.76
2018-08-17T00:22:25.808Z,19.74
2018-08-17T00:24:54.419Z,19.70
2018-08-17T00:27:23.078Z,19.64
2018-08-17T00:29:51.762Z,19.57
2018-08-17T00:32:20.652Z,19.51
2018-08-17T00:34:49.648Z,19.48
2018-08-17T00:37:18.535Z,19.43
2018-08-17T00:39:47.220Z,19.42
2018-08-17T00:42:15.805Z,19.35
2018-08-17T00:44:44.329Z,19.23
2018-08-17T00:47:12.914Z,19.22
2018-08-17T00:49:41.546Z,19.21
2018-08-17T00:52:10.037Z,19.19
2018-08-17T00:54:38.820Z,19.17
2018-08-17T00:57:07.455Z,19.15
2018-08-17T00:59:36.087Z,19.14
2018-08-17T01:02:04.774Z,19.13
2018-08-17T01:04:33.303Z,19.13
2018-08-17T01:07:01.938Z,19.14
2018-08-17T01:09:30.467Z,19.12
2018-08-17T01:11:59.106Z,19.09
2018-08-17T01:14:27.635Z,19.10
2018-08-17T01:16:56.271Z,19.12
2018-08-17T01:19:24.805Z,19.13
2018-08-17T01:21:53.364Z,19.12
2018-08-17T01:24:22.223Z,19.11
2018-08-17T01:26:50.805Z,19.13
2018-08-17T01:29:19.389Z,19.12
2018-08-17T01:31:48.059Z,19.12
2018-08-17T01:34:16.611Z,19.12
2018-08-17T01:36:45.195Z,19.11
2018-08-17T01:39:13.824Z,19.11
2018-08-17T01:41:42.409Z,19.12
2018-08-17T01:44:10.975Z,19.11
2018-08-17T01:46:40.198Z,19.10
2018-08-17T01:49:09.390Z,19.09
2018-08-17T01:51:37.927Z,19.05
2018-08-17T01:54:07.211Z,19.05
2018-08-17T01:56:35.720Z,19.01
2018-08-17T01:59:04.898Z,18.94
2018-08-17T02:01:33.526Z,18.86
2018-08-17T02:04:02.827Z,18.81
2018-08-17T02:06:32.228Z,18.76
2018-08-17T02:09:00.758Z,18.73
2018-08-17T02:11:29.344Z,18.72
2018-08-17T02:13:57.976Z,18.72
2018-08-17T02:16:26.527Z,18.72
2018-08-17T02:18:55.091Z,18.71
2018-08-17T02:21:23.982Z,18.68
2018-08-17T02:23:52.567Z,18.66
2018-08-17T02:26:21.200Z,18.65
2018-08-17T02:28:49.787Z,18.67
2018-08-17T02:31:18.584Z,18.66
2018-08-17T02:33:47.234Z,18.67
2018-08-17T02:36:15.839Z,18.69
2018-08-17T02:38:44.421Z,18.69
2018-08-17T02:41:13.007Z,18.68
2018-08-17T02:43:41.673Z,18.70
2018-08-17T02:46:10.235Z,18.71
2018-08-17T02:48:38.856Z,18.70
2018-08-17T02:51:07.395Z,18.71
2018-08-17T02:53:35.919Z,18.71
2018-08-17T02:56:04.553Z,18.70
2018-08-17T02:58:33.102Z,18.71
2018-08-17T03:01:01.666Z,18.70
2018-08-17T03:03:31.068Z,18.71
2018-08-17T03:05:59.595Z,18.71
2018-08-17T03:08:28.234Z,18.67
2018-08-17T03:10:56.817Z,18.75
2018-08-17T03:13:26.083Z,18.76
2018-08-17T03:15:54.802Z,18.74
2018-08-17T03:18:23.301Z,18.72
2018-08-17T03:20:51.871Z,18.72
2018-08-17T03:23:20.552Z,18.71
2018-08-17T03:25:49.648Z,18.72
2018-08-17T03:28:18.278Z,18.72
2018-08-17T03:30:46.879Z,18.70
2018-08-17T03:33:15.496Z,18.69
2018-08-17T03:35:44.081Z,18.62
2018-08-17T03:38:12.757Z,18.65
2018-08-17T03:40:41.275Z,18.61
2018-08-17T03:43:09.930Z,18.56
2018-08-17T03:45:38.456Z,18.53
2018-08-17T03:48:07.565Z,18.50
2018-08-17T03:50:36.352Z,18.49
2018-08-17T03:53:04.979Z,18.49
2018-08-17T03:55:33.619Z,18.50
2018-08-17T03:58:02.253Z,18.49
2018-08-17T04:00:30.835Z,18.49
2018-08-17T04:02:59.619Z,18.48
2018-08-17T04:05:28.917Z,18.48
2018-08-17T04:07:58.115Z,18.49
2018-08-17T04:10:26.731Z,18.50
2018-08-17T04:12:55.239Z,18.51
2018-08-17T04:15:23.846Z,18.51
2018-08-17T04:17:52.457Z,18.50
2018-08-17T04:20:21.132Z,18.52
2018-08-17T04:22:49.716Z,18.51
2018-08-17T04:25:18.218Z,18.51
2018-08-17T04:27:46.758Z,18.52
2018-08-17T04:30:15.319Z,18.54
2018-08-17T04:32:43.896Z,18.55
2018-08-17T04:35:12.527Z,18.58
2018-08-17T04:37:41.417Z,18.59
2018-08-17T04:40:10.004Z,18.65
2018-08-17T04:42:38.675Z,18.70
2018-08-17T04:45:08.176Z,18.73
2018-08-17T04:47:36.877Z,18.76
2018-08-17T04:50:06.327Z,18.80
2018-08-17T04:52:34.862Z,18.85
2018-08-17T04:55:03.544Z,18.91
2018-08-17T04:57:32.075Z,18.94
2018-08-17T05:00:00.715Z,18.99
2018-08-17T05:02:29.364Z,19.06
2018-08-17T05:04:57.937Z,19.08
2018-08-17T05:07:26.458Z,19.08
2018-08-17T05:09:54.983Z,19.13
2018-08-17T05:12:23.625Z,19.16
2018-08-17T05:14:52.122Z,19.20
2018-08-17T05:17:20.755Z,19.18
2018-08-17T05:19:49.353Z,19.23
2018-08-17T05:22:17.875Z,19.29
2018-08-17T05:24:46.454Z,19.35
2018-08-17T05:27:14.963Z,19.38
2018-08-17T05:29:43.565Z,19.42
2018-08-17T05:32:12.289Z,19.46
2018-08-17T05:34:40.812Z,19.52
2018-08-17T05:37:09.321Z,19.60
2018-08-17T05:39:37.934Z,19.74
2018-08-17T05:42:06.588Z,19.87
2018-08-17T05:44:36.432Z,19.97
2018-08-17T05:47:05.072Z,20.06
2018-08-17T05:49:34.315Z,20.17
2018-08-17T05:52:02.943Z,20.25
2018-08-17T05:54:31.788Z,20.37
2018-08-17T05:57:00.349Z,20.43
2018-08-17T05:59:28.917Z,20.36
2018-08-17T06:01:57.643Z,20.31
2018-08-17T06:04:26.255Z,20.25
2018-08-17T06:06:55.352Z,20.14
2018-08-17T06:09:24.617Z,20.22
2018-08-17T06:11:53.151Z,20.19
2018-08-17T06:14:21.784Z,20.23
2018-08-17T06:16:50.365Z,20.24
2018-08-17T06:19:19.594Z,20.34
2018-08-17T06:21:48.129Z,20.47
2018-08-17T06:24:16.793Z,20.65
2018-08-17T06:26:45.439Z,20.80
2018-08-17T06:29:14.762Z,20.97
2018-08-17T06:31:44.409Z,20.97
2018-08-17T06:34:12.974Z,20.91
2018-08-17T06:36:41.526Z,20.80
2018-08-17T06:39:11.542Z,20.77
2018-08-17T06:41:40.399Z,20.69
2018-08-17T06:44:09.128Z,20.57
2018-08-17T06:46:37.679Z,20.42
2018-08-17T06:49:06.923Z,20.45
2018-08-17T06:51:35.747Z,20.48
2018-08-17T06:54:04.343Z,20.50
2018-08-17T06:56:33.507Z,20.57
2018-08-17T06:59:02.034Z,20.53
2018-08-17T07:01:32.103Z,20.47
2018-08-17T07:04:00.670Z,20.44
2018-08-17T07:06:29.397Z,20.43
2018-08-17T07:08:58.014Z,20.50
2018-08-17T07:11:26.664Z,20.58
2018-08-17T07:13:55.338Z,20.60
2018-08-17T07:16:24.819Z,20.49
2018-08-17T07:18:53.405Z,20.52
2018-08-17T07:21:22.022Z,20.74
2018-08-17T07:23:51.386Z,20.92
2018-08-17T07:26:19.963Z,20.90
2018-08-17T07:28:48.586Z,20.83
2018-08-17T07:31:17.169Z,20.87
2018-08-17T07:33:45.855Z,20.83
2018-08-17T07:36:14.542Z,20.81
2018-08-17T07:38:43.043Z,20.84
2018-08-17T07:41:11.709Z,20.89
2018-08-17T07:43:40.380Z,20.86
2018-08-17T07:46:10.163Z,20.85
2018-08-17T07:48:39.442Z,20.78
2018-08-17T07:51:08.605Z,20.71
2018-08-17T07:53:38.716Z,20.60
2018-08-17T07:56:07.355Z,20.48
2018-08-17T07:58:35.984Z,20.36
2018-08-17T08:01:04.619Z,20.24
2018-08-17T08:03:33.204Z,20.19
2018-08-17T08:06:02.419Z,20.29
2018-08-17T08:08:30.950Z,20.32
2018-08-17T08:11:00.596Z,20.28
2018-08-17T08:13:29.088Z,20.47
2018-08-17T08:15:57.706Z,20.53
2018-08-17T08:18:26.740Z,20.60
2018-08-17T08:20:56.200Z,20.57
2018-08-17T08:23:28.278Z,20.55
2018-08-17T08:25:59.543Z,20.50
2018-08-17T08:28:29.530Z,20.63
2018-08-17T08:30:59.791Z,20.70
2018-08-17T08:33:29.418Z,20.74
2018-08-17T08:35:58.757Z,20.79
2018-08-17T08:38:29.025Z,20.86
2018-08-17T08:40:59.508Z,20.68
2018-08-17T08:43:30.318Z,20.62
2018-08-17T08:46:00.095Z,20.61
2018-08-17T08:48:29.866Z,20.57
2018-08-17T08:51:00.599Z,20.48
2018-08-17T08:53:29.895Z,20.53
2018-08-17T08:55:59.594Z,20.37
2018-08-17T08:58:28.612Z,20.40
2018-08-17T09:00:57.134Z,20.35
2018-08-17T09:03:26.493Z,20.31
2018-08-17T09:05:55.102Z,20.30
2018-08-17T09:08:23.751Z,20.39
2018-08-17T09:10:52.271Z,20.51
2018-08-17T09:13:20.878Z,20.54
2018-08-17T09:15:49.446Z,20.58
2018-08-17T09:18:18.902Z,20.65
2018-08-17T09:20:47.590Z,20.75
2018-08-17T09:23:16.091Z,20.74
2018-08-17T09:25:44.751Z,20.68
2018-08-17T09:28:13.443Z,20.57
2018-08-17T09:30:42.019Z,20.48
2018-08-17T09:33:10.663Z,20.44
2018-08-17T09:35:39.370Z,20.38
2018-08-17T09:38:08.011Z,20.33
2018-08-17T09:40:37.185Z,20.37
2018-08-17T09:43:05.988Z,20.40
2018-08-17T09:45:34.644Z,20.41
2018-08-17T09:48:03.386Z,20.38
2018-08-17T09:50:32.013Z,20.27
2018-08-17T09:53:00.619Z,20.22
2018-08-17T09:55:29.130Z,20.23
2018-08-17T09:57:57.625Z,20.21
2018-08-17T10:00:32.198Z,20.18
2018-08-17T10:03:06.397Z,20.19
2018-08-17T10:05:38.673Z,20.14
2018-08-17T10:08:12.321Z,20.11
2018-08-17T10:10:41.020Z,20.21
2018-08-17T10:13:09.646Z,20.30
2018-08-17T10:15:38.151Z,20.35
2018-08-17T10:18:06.760Z,20.38
2018-08-17T10:20:35.407Z,20.38
2018-08-17T10:23:10.936Z,20.39
2018-08-17T10:25:40.051Z,20.28
2018-08-17T10:28:09.350Z,20.25
2018-08-17T10:30:38.013Z,20.30
2018-08-17T10:33:06.519Z,20.38
2018-08-17T10:35:36.356Z,20.46
2018-08-17T10:38:07.151Z,20.60
2018-08-17T10:40:35.649Z,20.77
2018-08-17T10:43:05.805Z,20.80
2018-08-17T10:45:34.890Z,20.85
2018-08-17T10:48:03.749Z,20.88
2018-08-17T10:50:33.443Z,20.88
2018-08-17T10:53:03.193Z,20.93
2018-08-17T10:55:41.732Z,20.94
2018-08-17T10:58:13.183Z,21.01
2018-08-17T11:00:42.000Z,21.15
2018-08-17T11:03:10.821Z,21.03
2018-08-17T11:05:39.426Z,21.06
2018-08-17T11:08:08.297Z,21.24
2018-08-17T11:10:36.945Z,21.40
2018-08-17T11:13:05.733Z,21.50
2018-08-17T11:15:34.340Z,21.62
2018-08-17T11:18:03.005Z,21.70
2018-08-17T11:20:31.676Z,21.70
2018-08-17T11:23:00.536Z,21.64
2018-08-17T11:25:29.111Z,21.54
2018-08-17T11:27:57.665Z,21.41
2018-08-17T11:30:26.263Z,21.30
2018-08-17T11:32:54.846Z,21.20
2018-08-17T11:35:23.435Z,21.19
2018-08-17T11:37:52.118Z,21.24
2018-08-17T11:40:20.679Z,21.19
2018-08-17T11:42:50.320Z,21.12
2018-08-17T11:45:27.234Z,21.15
2018-08-17T11:47:57.059Z,21.19
2018-08-17T11:50:26.637Z,21.37
2018-08-17T11:52:56.575Z,21.53
2018-08-17T11:55:26.347Z,21.58
2018-08-17T11:57:55.043Z,21.64
2018-08-17T12:00:24.064Z,21.79
2018-08-17T12:02:52.711Z,21.86
2018-08-17T12:05:21.542Z,22.14
2018-08-17T12:07:50.430Z,22.38
2018-08-17T12:10:19.016Z,22.37
2018-08-17T12:12:47.843Z,22.34
2018-08-17T12:15:17.304Z,22.22
2018-08-17T12:17:45.935Z,22.03
2018-08-17T12:20:14.674Z,22.11
2018-08-17T12:22:43.257Z,22.13
2018-08-17T12:25:12.096Z,22.10
2018-08-17T12:27:46.891Z,22.04
2018-08-17T12:30:15.394Z,22.21
2018-08-17T12:32:44.044Z,22.35
2018-08-17T12:35:12.712Z,22.28
2018-08-17T12:37:41.410Z,22.29
2018-08-17T12:40:10.075Z,22.36
2018-08-17T12:42:39.346Z,22.39
2018-08-17T12:45:13.027Z,22.38
2018-08-17T12:47:43.066Z,22.41
2018-08-17T12:50:11.703Z,22.19
2018-08-17T12:52:40.229Z,22.26
2018-08-17T12:55:09.447Z,22.33
2018-08-17T12:57:40.846Z,22.39
2018-08-17T13:00:09.473Z,22.44
2018-08-17T13:02:38.093Z,22.36
2018-08-17T13:05:06.836Z,22.29
2018-08-17T13:07:35.346Z,22.16
2018-08-17T13:10:04.267Z,22.19
2018-08-17T13:12:32.868Z,22.25
2018-08-17T13:15:01.439Z,22.30
2018-08-17T13:17:48.637Z,22.29
2018-08-17T13:20:17.936Z,22.40
2018-08-17T13:22:46.471Z,22.29
2018-08-17T13:25:15.205Z,22.17
2018-08-17T13:27:44.271Z,22.19
2018-08-17T13:30:14.570Z,22.17
2018-08-17T13:32:43.974Z,22.01
2018-08-17T13:35:13.635Z,21.84
2018-08-17T13:37:43.089Z,21.91
2018-08-17T13:40:12.234Z,21.97
2018-08-17T13:42:41.124Z,21.86
2018-08-17T13:45:10.587Z,21.83
2018-08-17T13:47:39.151Z,21.76
2018-08-17T13:50:08.104Z,21.68
2018-08-17T13:52:36.731Z,21.66
2018-08-17T13:55:05.372Z,21.66
2018-08-17T13:57:33.866Z,21.58
2018-08-17T14:00:03.252Z,21.59
2018-08-17T14:02:31.937Z,21.66
2018-08-17T14:05:00.559Z,21.73
2018-08-17T14:07:29.167Z,21.80
2018-08-17T14:09:57.818Z,21.97
2018-08-17T14:12:26.473Z,22.03
2018-08-17T14:14:54.985Z,22.17
2018-08-17T14:17:24.355Z,22.11
2018-08-17T14:19:52.983Z,22.09
2018-08-17T14:22:21.563Z,22.10
2018-08-17T14:24:50.206Z,22.04
2018-08-17T14:27:18.857Z,22.16
2018-08-17T14:29:48.093Z,22.37
2018-08-17T14:32:16.671Z,21.95
2018-08-17T14:34:45.971Z,22.75
2018-08-17T14:37:14.483Z,22.69
2018-08-17T14:39:43.102Z,22.66
2018-08-17T14:42:11.663Z,22.59
2018-08-17T14:44:40.405Z,22.47
2018-08-17T14:47:09.002Z,22.43
2018-08-17T14:49:39.462Z,22.46
2018-08-17T14:52:08.068Z,22.50
2018-08-17T14:54:36.696Z,22.51
2018-08-17T14:57:05.368Z,22.55
2018-08-17T14:59:33.978Z,22.50
2018-08-17T15:02:02.537Z,22.33
2018-08-17T15:04:31.116Z,22.32
2018-08-17T15:06:59.699Z,22.35
2018-08-17T15:09:28.328Z,22.32
2018-08-17T15:11:56.886Z,22.39
2018-08-17T15:14:25.487Z,22.30
2018-08-17T15:16:54.133Z,22.25
2018-08-17T15:19:24.911Z,22.26
2018-08-17T15:21:53.599Z,22.14
2018-08-17T15:24:22.174Z,22.29
2018-08-17T15:26:50.819Z,22.24
2018-08-17T15:29:19.505Z,22.11
2018-08-17T15:31:48.031Z,22.11
2018-08-17T15:34:16.672Z,22.15
2018-08-17T15:36:45.734Z,21.99
2018-08-17T15:39:14.439Z,22.01
2018-08-17T15:41:45.017Z,21.90
2018-08-17T15:44:18.955Z,21.92
2018-08-17T15:46:47.627Z,21.93
2018-08-17T15:49:22.003Z,21.91
2018-08-17T15:51:50.679Z,21.92
2018-08-17T15:54:20.141Z,21.94
2018-08-17T15:56:48.765Z,21.88
2018-08-17T15:59:17.862Z,21.75
2018-08-17T16:01:46.468Z,21.61
2018-08-17T16:04:15.282Z,21.71
2018-08-17T16:06:43.876Z,21.74
2018-08-17T16:09:13.607Z,21.75
2018-08-17T16:11:42.309Z,21.58
2018-08-17T16:14:10.964Z,21.48
2018-08-17T16:16:40.963Z,21.46
2018-08-17T16:19:10.479Z,21.46
2018-08-17T16:21:39.699Z,21.57
2018-08-17T16:24:08.379Z,21.53
2018-08-17T16:26:36.906Z,21.46
2018-08-17T16:29:05.998Z,21.47
2018-08-17T16:31:40.791Z,21.10
2018-08-17T16:34:10.064Z,21.01
2018-08-17T16:36:40.963Z,20.82
2018-08-17T16:39:12.453Z,20.77
2018-08-17T16:41:41.104Z,20.74
2018-08-17T16:44:09.703Z,20.70
2018-08-17T16:46:39.642Z,20.67
2018-08-17T16:49:08.407Z,20.66
2018-08-17T16:51:37.460Z,20.66
2018-08-17T16:54:06.446Z,20.57
2018-08-17T16:56:35.337Z,20.54
2018-08-17T16:59:04.162Z,20.51
2018-08-17T17:01:34.346Z,20.41
2018-08-17T17:04:03.034Z,20.33
2018-08-17T17:06:32.221Z,20.26
2018-08-17T17:09:02.858Z,20.23
2018-08-17T17:11:31.669Z,20.20
2018-08-17T17:14:00.318Z,20.20
2018-08-17T17:16:37.294Z,20.17
2018-08-17T17:19:09.602Z,20.15
2018-08-17T17:21:41.035Z,20.21
2018-08-17T17:24:09.733Z,20.25
2018-08-17T17:26:38.324Z,20.13
2018-08-17T17:29:07.394Z,20.02
2018-08-17T17:31:36.070Z,20.02
2018-08-17T17:34:04.731Z,19.99
2018-08-17T17:36:33.299Z,19.96
2018-08-17T17:39:02.523Z,19.89
2018-08-17T17:41:32.751Z,19.87
2018-08-17T17:44:01.913Z,19.82
2018-08-17T17:46:30.650Z,19.76
2018-08-17T17:48:59.191Z,19.75
2018-08-17T17:51:28.722Z,19.71
2018-08-17T17:53:58.806Z,19.63
2018-08-17T17:56:28.149Z,19.66
2018-08-17T17:59:06.261Z,19.66
2018-08-17T18:01:35.219Z,19.66
2018-08-17T18:04:05.415Z,19.59
2018-08-17T18:06:33.998Z,19.50
2018-08-17T18:09:02.845Z,19.45
2018-08-17T18:11:31.442Z,19.43
2018-08-17T18:14:00.183Z,19.37
2018-08-17T18:16:28.866Z,19.36
2018-08-17T18:18:57.449Z,19.36
2018-08-17T18:21:32.131Z,19.34
2018-08-17T18:24:06.947Z,19.35
2018-08-17T18:26:35.974Z,19.30
2018-08-17T18:29:04.584Z,19.30
2018-08-17T18:31:33.200Z,19.26
2018-08-17T18:34:01.868Z,19.22
2018-08-17T18:36:32.005Z,19.15
2018-08-17T18:39:01.057Z,19.00
2018-08-17T18:41:29.691Z,18.89
2018-08-17T18:43:59.238Z,18.86
2018-08-17T18:46:27.895Z,18.81
2018-08-17T18:48:56.517Z,18.80
2018-08-17T18:51:25.091Z,18.74
2018-08-17T18:53:53.654Z,18.70
2018-08-17T18:56:22.244Z,18.60
2018-08-17T18:58:50.889Z,18.53
2018-08-17T19:01:19.772Z,18.45
2018-08-17T19:03:48.567Z,18.38
2018-08-17T19:06:17.100Z,18.33
2018-08-17T19:08:46.094Z,18.31
2018-08-17T19:11:14.682Z,18.30
2018-08-17T19:13:43.223Z,18.29
2018-08-17T19:16:11.961Z,18.26
2018-08-17T19:18:40.475Z,18.15
2018-08-17T19:21:12.959Z,18.14
2018-08-17T19:23:41.625Z,18.10
2018-08-17T19:26:10.910Z,18.09
2018-08-17T19:28:39.820Z,18.02
2018-08-17T19:31:08.712Z,17.97
2018-08-17T19:33:37.398Z,17.91
2018-08-17T19:36:07.576Z,17.87
2018-08-17T19:38:39.859Z,17.76
2018-08-17T19:41:08.682Z,17.68
2018-08-17T19:43:37.606Z,17.55
2018-08-17T19:46:06.665Z,17.52
2018-08-17T19:48:35.483Z,17.44
2018-08-17T19:51:10.124Z,17.36
2018-08-17T19:53:38.886Z,17.31
2018-08-17T19:56:08.261Z,17.28
2018-08-17T19:58:37.623Z,17.22
2018-08-17T20:01:08.002Z,17.18
2018-08-17T20:03:36.673Z,17.14
2018-08-17T20:06:05.360Z,17.09
2018-08-17T20:08:34.254Z,17.02
2018-08-17T20:11:02.912Z,15.28
2018-08-17T20:13:31.623Z,16.89
2018-08-17T20:16:00.201Z,16.83
2018-08-17T20:18:28.888Z,16.73
2018-08-17T20:20:57.772Z,16.76
2018-08-17T20:23:26.429Z,16.71
2018-08-17T20:25:55.272Z,16.69
2018-08-17T20:28:24.143Z,16.69
2018-08-17T20:30:52.776Z,16.71
2018-08-17T20:33:28.169Z,16.72
2018-08-17T20:35:57.615Z,16.72
2018-08-17T20:38:26.974Z,16.69
2018-08-17T20:40:59.825Z,16.66
2018-08-17T20:43:28.894Z,16.67
2018-08-17T20:45:57.586Z,16.67
2018-08-17T20:48:26.217Z,16.64
2018-08-17T20:50:54.960Z,16.63
2018-08-17T20:53:24.100Z,16.60
2018-08-17T20:55:52.685Z,16.60
2018-08-17T20:58:21.233Z,16.57
2018-08-17T21:00:49.851Z,16.57
2018-08-17T21:03:18.512Z,16.59
2018-08-17T21:05:47.046Z,16.59
2018-08-17T21:08:15.808Z,16.59
2018-08-17T21:10:44.384Z,16.61
2018-08-17T21:13:13.536Z,16.57
2018-08-17T21:15:42.895Z,16.20
2018-08-17T21:18:11.564Z,16.49
2018-08-17T21:20:40.864Z,16.46
2018-08-17T21:23:10.041Z,16.44
2018-08-17T21:25:38.852Z,16.40
2018-08-17T21:28:07.435Z,16.37
2018-08-17T21:30:36.039Z,16.36
2018-08-17T21:33:04.705Z,16.30
2018-08-17T21:35:33.339Z,16.28
2018-08-17T21:38:01.923Z,16.26
2018-08-17T21:40:31.273Z,16.24
2018-08-17T21:43:01.292Z,16.19
2018-08-17T21:45:30.182Z,16.17
2018-08-17T21:47:58.892Z,16.17
2018-08-17T21:50:27.553Z,16.12
2018-08-17T21:52:56.335Z,16.09
2018-08-17T21:55:24.924Z,16.05
2018-08-17T21:57:53.595Z,16.00
2018-08-17T22:00:28.906Z,15.96
2018-08-17T22:02:57.835Z,15.91
2018-08-17T22:05:31.659Z,15.90
2018-08-17T22:08:00.736Z,15.85
2018-08-17T22:10:30.035Z,15.85
2018-08-17T22:12:59.438Z,15.86
2018-08-17T22:15:29.623Z,15.82
2018-08-17T22:17:58.198Z,15.84
2018-08-17T22:20:26.872Z,15.84
2018-08-17T22:22:55.541Z,15.84
2018-08-17T22:25:24.297Z,15.81
2018-08-17T22:27:52.987Z,15.77
2018-08-17T22:30:24.551Z,15.74
2018-08-17T22:32:53.222Z,15.71
2018-08-17T22:35:21.960Z,15.69
2018-08-17T22:37:50.543Z,15.64
2018-08-17T22:40:19.098Z,15.58
2018-08-17T22:42:48.762Z,15.52
2018-08-17T22:45:17.718Z,15.48
2018-08-17T22:47:46.644Z,15.45
2018-08-17T22:50:15.250Z,15.39
2018-08-17T22:52:43.895Z,15.38
2018-08-17T22:55:12.514Z,15.32
2018-08-17T22:57:41.304Z,15.28
2018-08-17T23:00:18.187Z,15.26
2018-08-17T23:02:48.510Z,15.23
2018-08-17T23:05:18.894Z,15.20
2018-08-17T23:07:47.415Z,15.13
2018-08-17T23:10:17.999Z,15.05
2018-08-17T23:12:47.702Z,14.99
2018-08-17T23:15:16.229Z,14.94
2018-08-17T23:18:01.538Z,14.91
2018-08-17T23:20:36.196Z,14.86
2018-08-17T23:23:06.071Z,14.79
2018-08-17T23:25:35.029Z,14.71
2018-08-17T23:28:03.744Z,14.65
2018-08-17T23:30:32.362Z,14.63
2018-08-17T23:33:01.094Z,14.63
2018-08-17T23:35:29.879Z,14.62
2018-08-17T23:37:58.665Z,14.60
2018-08-17T23:40:27.454Z,14.57
2018-08-17T23:42:56.039Z,14.52
2018-08-17T23:45:24.620Z,14.55
2018-08-17T23:47:53.356Z,14.58
2018-08-17T23:50:22.047Z,14.56
2018-08-17T23:52:50.676Z,14.53
2018-08-17T23:55:19.278Z,14.55
2018-08-17T23:57:48.048Z,14.64
